createdAt,value
2019-03-24T00:00:31.383Z,12.70
2019-03-24T00:02:59.927Z,12.60
2019-03-24T00:05:28.343Z,12.60
2019-03-24T00:07:57.001Z,12.50
2019-03-24T00:10:25.491Z,12.50
2019-03-24T00:12:53.946Z,12.40
2019-03-24T00:15:26.456Z,12.40
2019-03-24T00:17:52.948Z,12.40
2019-03-24T00:20:21.356Z,12.30
2019-03-24T00:22:50.041Z,12.30
2019-03-24T00:25:18.505Z,12.20
2019-03-24T00:27:46.978Z,12.20
2019-03-24T00:30:15.957Z,12.20
2019-03-24T00:32:44.401Z,12.10
2019-03-24T00:35:12.931Z,12.10
2019-03-24T00:37:41.368Z,12.00
2019-03-24T00:40:09.959Z,12.00
2019-03-24T00:42:38.392Z,12.00
2019-03-24T00:45:08.517Z,12.00
2019-03-24T00:47:36.969Z,11.90
2019-03-24T00:50:06.620Z,11.90
2019-03-24T00:52:35.085Z,11.90
2019-03-24T00:55:04.499Z,11.80
2019-03-24T00:57:32.907Z,11.80
2019-03-24T01:00:01.369Z,11.80
2019-03-24T01:02:29.880Z,11.70
2019-03-24T01:04:58.397Z,11.70
2019-03-24T01:07:26.879Z,11.60
2019-03-24T01:09:55.374Z,11.60
2019-03-24T01:12:23.863Z,11.60
2019-03-24T01:14:52.302Z,11.50
2019-03-24T01:17:20.816Z,11.50
2019-03-24T01:19:49.256Z,11.40
2019-03-24T01:22:17.685Z,11.40
2019-03-24T01:24:46.132Z,11.40
2019-03-24T01:27:14.540Z,11.30
2019-03-24T01:29:42.993Z,11.30
2019-03-24T01:32:11.411Z,11.30
2019-03-24T01:34:39.918Z,11.20
2019-03-24T01:37:08.333Z,11.20
2019-03-24T01:39:36.790Z,11.20
2019-03-24T01:42:05.261Z,11.10
2019-03-24T01:44:33.699Z,11.10
2019-03-24T01:47:02.136Z,11.10
2019-03-24T01:49:30.602Z,11.10
2019-03-24T01:51:59.028Z,11.00
2019-03-24T01:54:27.495Z,11.00
2019-03-24T01:56:55.908Z,11.00
2019-03-24T01:59:24.355Z,11.00
2019-03-24T02:01:52.772Z,10.90
2019-03-24T02:04:21.210Z,10.90
2019-03-24T02:06:49.660Z,10.90
2019-03-24T02:09:18.146Z,10.80
2019-03-24T02:11:46.572Z,10.80
2019-03-24T02:14:15.002Z,10.80
2019-03-24T02:16:43.449Z,10.70
2019-03-24T02:19:12.001Z,10.70
2019-03-24T02:21:40.436Z,10.70
2019-03-24T02:24:08.865Z,10.70
2019-03-24T02:26:37.343Z,10.60
2019-03-24T02:29:05.756Z,10.60
2019-03-24T02:31:34.194Z,10.50
2019-03-24T02:34:02.644Z,10.50
2019-03-24T02:36:31.078Z,10.50
2019-03-24T02:38:59.507Z,10.40
2019-03-24T02:41:27.936Z,10.40
2019-03-24T02:43:56.350Z,10.40
2019-03-24T02:46:25.208Z,10.30
2019-03-24T02:48:53.789Z,10.30
2019-03-24T02:51:22.294Z,10.30
2019-03-24T02:53:50.718Z,10.30
2019-03-24T02:56:19.170Z,10.30
2019-03-24T02:58:47.668Z,10.20
2019-03-24T03:01:16.137Z,10.20
2019-03-24T03:03:44.565Z,10.10
2019-03-24T03:06:13.015Z,10.10
2019-03-24T03:08:41.422Z,10.10
2019-03-24T03:11:09.908Z,10.00
2019-03-24T03:13:38.373Z,10.00
2019-03-24T03:16:06.899Z,10.00
2019-03-24T03:18:35.425Z,10.00
2019-03-24T03:21:04.164Z,9.90
2019-03-24T03:23:32.564Z,9.90
2019-03-24T03:26:00.997Z,9.90
2019-03-24T03:28:29.434Z,9.80
2019-03-24T03:30:57.863Z,9.80
2019-03-24T03:33:26.437Z,9.80
2019-03-24T03:35:54.847Z,9.70
2019-03-24T03:38:23.292Z,9.70
2019-03-24T03:40:51.769Z,9.70
2019-03-24T03:43:20.450Z,9.60
2019-03-24T03:45:48.870Z,9.60
2019-03-24T03:48:17.342Z,9.60
2019-03-24T03:50:45.829Z,9.60
2019-03-24T03:53:14.260Z,9.50
2019-03-24T03:55:42.666Z,9.50
2019-03-24T03:58:11.149Z,9.50
2019-03-24T04:00:39.661Z,9.40
2019-03-24T04:03:08.563Z,9.40
2019-03-24T04:05:37.028Z,9.40
2019-03-24T04:08:06.228Z,9.40
2019-03-24T04:10:34.749Z,9.40
2019-03-24T04:13:03.311Z,9.30
2019-03-24T04:15:31.762Z,9.30
2019-03-24T04:18:00.173Z,9.20
2019-03-24T04:20:28.614Z,9.20
2019-03-24T04:22:57.019Z,9.20
2019-03-24T04:25:25.529Z,9.20
2019-03-24T04:27:54.014Z,9.10
2019-03-24T04:30:22.485Z,9.10
2019-03-24T04:32:50.945Z,9.10
2019-03-24T04:35:19.397Z,9.10
2019-03-24T04:37:47.894Z,9.10
2019-03-24T04:40:16.324Z,9.10
2019-03-24T04:42:44.732Z,9.00
2019-03-24T04:45:13.320Z,9.00
2019-03-24T04:47:41.732Z,9.00
2019-03-24T04:50:10.705Z,9.00
2019-03-24T04:52:39.122Z,8.90
2019-03-24T04:55:08.079Z,8.90
2019-03-24T04:57:36.628Z,8.90
2019-03-24T05:00:07.607Z,8.90
2019-03-24T05:02:36.020Z,8.90
2019-03-24T05:05:06.828Z,8.90
2019-03-24T05:07:35.304Z,8.80
2019-03-24T05:10:05.674Z,8.80
2019-03-24T05:12:34.301Z,8.80
2019-03-24T05:15:02.715Z,8.70
2019-03-24T05:17:31.150Z,8.70
2019-03-24T05:19:59.569Z,8.70
2019-03-24T05:22:28.009Z,8.70
2019-03-24T05:24:56.420Z,8.70
2019-03-24T05:27:24.861Z,8.60
2019-03-24T05:29:53.293Z,8.60
2019-03-24T05:32:21.781Z,8.60
2019-03-24T05:34:50.220Z,8.60
2019-03-24T05:37:18.658Z,8.50
2019-03-24T05:39:47.073Z,8.50
2019-03-24T05:42:15.509Z,8.50
2019-03-24T05:44:43.970Z,8.50
2019-03-24T05:47:12.440Z,8.50
2019-03-24T05:49:40.893Z,8.50
2019-03-24T05:52:09.309Z,8.50
2019-03-24T05:54:37.758Z,8.50
2019-03-24T05:57:06.207Z,8.50
2019-03-24T05:59:34.680Z,8.50
2019-03-24T06:02:03.100Z,8.50
2019-03-24T06:04:31.580Z,8.50
2019-03-24T06:07:00.015Z,8.50
2019-03-24T06:09:28.496Z,8.50
2019-03-24T06:11:56.923Z,8.50
2019-03-24T06:14:25.468Z,8.50
2019-03-24T06:16:53.904Z,8.40
2019-03-24T06:19:22.333Z,8.50
2019-03-24T06:21:50.809Z,8.50
2019-03-24T06:24:19.331Z,8.50
2019-03-24T06:26:47.823Z,8.50
2019-03-24T06:29:16.324Z,8.60
2019-03-24T06:31:44.857Z,8.60
2019-03-24T06:34:13.367Z,8.70
2019-03-24T06:36:41.809Z,8.70
2019-03-24T06:39:10.277Z,8.70
2019-03-24T06:41:38.684Z,8.80
2019-03-24T06:44:07.242Z,8.80
2019-03-24T06:46:35.772Z,8.80
2019-03-24T06:49:04.226Z,8.80
2019-03-24T06:51:32.793Z,8.90
2019-03-24T06:54:01.241Z,9.00
2019-03-24T06:56:29.790Z,9.00
2019-03-24T06:58:58.220Z,9.10
2019-03-24T07:01:26.719Z,9.20
2019-03-24T07:03:55.160Z,9.20
2019-03-24T07:06:23.608Z,9.20
2019-03-24T07:08:52.064Z,9.30
2019-03-24T07:11:20.500Z,9.30
2019-03-24T07:13:49.081Z,9.30
2019-03-24T07:16:18.600Z,9.40
2019-03-24T07:18:47.242Z,9.40
2019-03-24T07:21:15.737Z,9.40
2019-03-24T07:23:44.204Z,9.40
2019-03-24T07:26:12.776Z,9.50
2019-03-24T07:28:41.228Z,9.50
2019-03-24T07:31:09.752Z,9.60
2019-03-24T07:33:38.216Z,9.60
2019-03-24T07:36:06.670Z,9.60
2019-03-24T07:38:35.086Z,9.70
2019-03-24T07:41:03.532Z,9.80
2019-03-24T07:43:32.272Z,9.90
2019-03-24T07:46:00.926Z,9.90
2019-03-24T07:48:29.358Z,10.00
2019-03-24T07:50:57.807Z,10.00
2019-03-24T07:53:26.313Z,10.10
2019-03-24T07:55:54.888Z,10.20
2019-03-24T07:58:23.385Z,10.30
2019-03-24T08:00:51.807Z,10.30
2019-03-24T08:03:20.330Z,10.40
2019-03-24T08:05:48.811Z,10.40
2019-03-24T08:08:17.246Z,10.50
2019-03-24T08:10:45.701Z,10.60
2019-03-24T08:13:14.172Z,10.70
2019-03-24T08:15:42.670Z,10.70
2019-03-24T08:18:11.187Z,10.70
2019-03-24T08:20:39.727Z,10.80
2019-03-24T08:23:08.207Z,10.80
2019-03-24T08:25:36.624Z,10.90
2019-03-24T08:28:05.168Z,11.00
2019-03-24T08:30:35.260Z,11.10
2019-03-24T08:33:04.595Z,11.10
2019-03-24T08:35:33.037Z,11.20
2019-03-24T08:38:01.754Z,11.20
2019-03-24T08:40:30.356Z,11.30
2019-03-24T08:42:58.842Z,11.40
2019-03-24T08:45:29.150Z,11.40
2019-03-24T08:47:58.043Z,11.50
2019-03-24T08:50:26.626Z,11.60
2019-03-24T08:52:55.072Z,11.70
2019-03-24T08:55:23.562Z,11.80
2019-03-24T08:57:51.978Z,11.80
2019-03-24T09:00:30.135Z,12.00
2019-03-24T09:02:50.629Z,12.00
2019-03-24T09:05:19.065Z,12.10
2019-03-24T09:07:47.514Z,12.20
2019-03-24T09:10:16.410Z,12.20
2019-03-24T09:12:44.854Z,12.30
2019-03-24T09:15:13.642Z,12.40
2019-03-24T09:17:42.096Z,12.50
2019-03-24T09:20:10.801Z,12.60
2019-03-24T09:22:39.344Z,12.70
2019-03-24T09:25:08.264Z,12.70
2019-03-24T09:27:36.946Z,12.80
2019-03-24T09:30:08.072Z,12.90
2019-03-24T09:32:36.582Z,13.00
2019-03-24T09:35:06.193Z,13.10
2019-03-24T09:37:34.636Z,13.20
2019-03-24T09:40:03.357Z,13.30
2019-03-24T09:42:31.849Z,13.40
2019-03-24T09:45:00.409Z,13.50
2019-03-24T09:47:28.874Z,13.60
2019-03-24T09:49:57.353Z,13.70
2019-03-24T09:52:25.810Z,13.80
2019-03-24T09:54:54.227Z,13.80
2019-03-24T09:57:22.849Z,13.90
2019-03-24T09:59:51.312Z,14.00
2019-03-24T10:02:19.741Z,14.10
2019-03-24T10:04:48.225Z,14.20
2019-03-24T10:07:16.650Z,14.30
2019-03-24T10:09:45.132Z,14.40
2019-03-24T10:12:13.626Z,14.50
2019-03-24T10:14:42.057Z,14.60
2019-03-24T10:17:10.509Z,14.60
2019-03-24T10:19:38.945Z,14.80
2019-03-24T10:22:07.428Z,14.90
2019-03-24T10:24:35.950Z,14.90
2019-03-24T10:27:04.406Z,15.20
2019-03-24T10:29:32.808Z,15.30
2019-03-24T10:32:01.275Z,15.30
2019-03-24T10:34:29.724Z,15.50
2019-03-24T10:36:58.224Z,15.60
2019-03-24T10:39:26.694Z,15.80
2019-03-24T10:41:55.135Z,16.00
2019-03-24T10:44:23.588Z,16.10
2019-03-24T10:46:52.049Z,16.30
2019-03-24T10:49:24.860Z,16.40
2019-03-24T10:51:50.647Z,16.50
2019-03-24T10:54:19.092Z,16.60
2019-03-24T10:56:47.539Z,16.90
2019-03-24T10:59:16.018Z,16.90
2019-03-24T11:01:44.498Z,17.10
2019-03-24T11:04:15.913Z,17.10
2019-03-24T11:06:43.923Z,17.10
2019-03-24T11:09:12.416Z,17.10
2019-03-24T11:11:40.906Z,17.20
2019-03-24T11:14:09.357Z,17.30
2019-03-24T11:16:37.828Z,17.40
2019-03-24T11:19:06.286Z,17.40
2019-03-24T11:21:34.740Z,17.60
2019-03-24T11:24:03.217Z,17.70
2019-03-24T11:26:31.646Z,17.80
2019-03-24T11:29:00.093Z,17.90
2019-03-24T11:31:28.551Z,17.90
2019-03-24T11:33:56.981Z,18.00
2019-03-24T11:36:25.551Z,18.10
2019-03-24T11:38:53.948Z,18.10
2019-03-24T11:41:22.484Z,18.20
2019-03-24T11:43:50.919Z,18.30
2019-03-24T11:46:19.426Z,18.30
2019-03-24T11:48:47.878Z,18.50
2019-03-24T11:51:16.385Z,18.60
2019-03-24T11:53:44.814Z,18.60
2019-03-24T11:56:13.253Z,18.60
2019-03-24T11:58:41.788Z,18.70
2019-03-24T12:01:10.322Z,18.90
2019-03-24T12:03:38.765Z,19.00
2019-03-24T12:06:14.517Z,19.10
2019-03-24T12:08:38.848Z,19.20
2019-03-24T12:11:07.430Z,19.30
2019-03-24T12:13:35.834Z,19.40
2019-03-24T12:16:04.458Z,19.50
2019-03-24T12:18:32.977Z,19.60
2019-03-24T12:21:01.466Z,19.60
2019-03-24T12:23:29.937Z,19.70
2019-03-24T12:25:58.506Z,19.80
2019-03-24T12:28:26.929Z,20.00
2019-03-24T12:30:55.360Z,20.10
2019-03-24T12:33:23.829Z,20.20
2019-03-24T12:35:52.229Z,20.30
2019-03-24T12:38:22.348Z,20.40
2019-03-24T12:40:50.875Z,20.40
2019-03-24T12:43:19.953Z,20.50
2019-03-24T12:45:48.526Z,20.50
2019-03-24T12:48:17.000Z,20.60
2019-03-24T12:50:45.547Z,20.70
2019-03-24T12:53:13.992Z,20.70
2019-03-24T12:55:42.426Z,20.70
2019-03-24T12:58:10.871Z,20.80
2019-03-24T13:00:39.937Z,20.80
2019-03-24T13:03:08.722Z,20.80
2019-03-24T13:05:37.322Z,20.90
2019-03-24T13:08:13.244Z,20.90
2019-03-24T13:10:42.789Z,20.90
2019-03-24T13:13:11.760Z,20.90
2019-03-24T13:15:40.817Z,20.90
2019-03-24T13:18:09.342Z,20.90
2019-03-24T13:20:38.767Z,21.00
2019-03-24T13:23:07.558Z,21.00
2019-03-24T13:25:36.391Z,21.10
2019-03-24T13:28:05.111Z,21.10
2019-03-24T13:30:33.558Z,21.10
2019-03-24T13:33:02.215Z,21.10
2019-03-24T13:35:30.653Z,21.00
2019-03-24T13:37:59.091Z,21.00
2019-03-24T13:40:27.526Z,21.00
2019-03-24T13:42:55.957Z,21.00
2019-03-24T13:45:24.406Z,21.00
2019-03-24T13:47:52.931Z,20.90
2019-03-24T13:50:31.045Z,20.90
2019-03-24T13:52:51.561Z,20.90
2019-03-24T13:55:20.007Z,20.80
2019-03-24T13:57:48.422Z,20.70
2019-03-24T14:00:17.812Z,20.70
2019-03-24T14:02:46.246Z,20.60
2019-03-24T14:05:14.796Z,20.60
2019-03-24T14:07:43.286Z,20.60
2019-03-24T14:10:11.949Z,20.50
2019-03-24T14:12:40.396Z,20.50
2019-03-24T14:15:09.672Z,20.50
2019-03-24T14:17:38.167Z,20.40
2019-03-24T14:20:07.666Z,20.30
2019-03-24T14:22:36.124Z,20.20
2019-03-24T14:25:06.909Z,20.10
2019-03-24T14:27:35.402Z,20.10
2019-03-24T14:30:08.229Z,20.10
2019-03-24T14:32:36.666Z,20.10
2019-03-24T14:35:06.433Z,20.20
2019-03-24T14:37:34.851Z,20.10
2019-03-24T14:40:05.120Z,20.00
2019-03-24T14:42:33.541Z,20.00
2019-03-24T14:45:02.057Z,19.90
2019-03-24T14:47:30.504Z,19.80
2019-03-24T14:49:58.950Z,19.70
2019-03-24T14:52:27.418Z,19.70
2019-03-24T14:54:55.847Z,19.70
2019-03-24T14:57:24.381Z,19.70
2019-03-24T14:59:52.818Z,19.60
2019-03-24T15:02:21.272Z,19.50
2019-03-24T15:04:49.688Z,19.30
2019-03-24T15:07:18.249Z,19.20
2019-03-24T15:09:46.684Z,19.20
2019-03-24T15:12:15.204Z,19.10
2019-03-24T15:14:43.630Z,19.10
2019-03-24T15:17:12.098Z,19.10
2019-03-24T15:19:40.508Z,19.00
2019-03-24T15:22:09.058Z,18.90
2019-03-24T15:24:37.512Z,18.90
2019-03-24T15:27:06.069Z,18.90
2019-03-24T15:29:34.509Z,18.80
2019-03-24T15:32:03.033Z,18.70
2019-03-24T15:34:31.454Z,18.70
2019-03-24T15:36:59.954Z,18.60
2019-03-24T15:39:28.430Z,18.40
2019-03-24T15:41:56.877Z,18.30
2019-03-24T15:44:25.331Z,18.20
2019-03-24T15:46:53.781Z,18.10
2019-03-24T15:49:22.388Z,18.00
2019-03-24T15:51:50.826Z,17.90
2019-03-24T15:54:19.381Z,17.90
2019-03-24T15:56:47.926Z,17.90
2019-03-24T15:59:17.311Z,17.80
2019-03-24T16:01:45.798Z,17.70
2019-03-24T16:04:14.301Z,17.60
2019-03-24T16:06:42.728Z,17.50
2019-03-24T16:09:11.201Z,17.40
2019-03-24T16:11:39.611Z,17.40
2019-03-24T16:14:08.069Z,17.30
2019-03-24T16:16:36.532Z,17.20
2019-03-24T16:19:05.097Z,17.20
2019-03-24T16:21:33.521Z,17.20
2019-03-24T16:24:02.006Z,17.20
2019-03-24T16:26:30.539Z,17.20
2019-03-24T16:28:58.992Z,17.10
2019-03-24T16:31:27.433Z,17.10
2019-03-24T16:33:55.932Z,17.00
2019-03-24T16:36:24.417Z,17.00
2019-03-24T16:39:02.942Z,16.90
2019-03-24T16:41:23.110Z,16.90
2019-03-24T16:43:51.761Z,16.80
2019-03-24T16:46:20.178Z,16.70
2019-03-24T16:48:48.619Z,16.70
2019-03-24T16:51:17.092Z,16.60
2019-03-24T16:53:45.550Z,16.60
2019-03-24T16:56:14.053Z,16.50
2019-03-24T16:58:42.538Z,16.50
2019-03-24T17:01:11.063Z,16.50
2019-03-24T17:03:39.582Z,16.40
2019-03-24T17:06:10.115Z,16.40
2019-03-24T17:08:38.330Z,16.40
2019-03-24T17:11:06.813Z,16.40
2019-03-24T17:13:35.255Z,16.30
2019-03-24T17:16:03.751Z,16.40
2019-03-24T17:18:32.242Z,16.30
2019-03-24T17:21:00.844Z,16.10
2019-03-24T17:23:29.335Z,16.10
2019-03-24T17:25:57.818Z,16.10
2019-03-24T17:28:26.231Z,16.10
2019-03-24T17:30:54.777Z,16.00
2019-03-24T17:33:23.223Z,16.00
2019-03-24T17:35:51.790Z,16.00
2019-03-24T17:38:20.285Z,16.00
2019-03-24T17:40:48.723Z,15.90
2019-03-24T17:43:17.274Z,15.90
2019-03-24T17:45:45.785Z,15.90
2019-03-24T17:48:14.382Z,15.90
2019-03-24T17:50:42.957Z,15.80
2019-03-24T17:53:11.500Z,15.80
2019-03-24T17:55:39.959Z,15.80
2019-03-24T17:58:08.389Z,15.80
2019-03-24T18:00:40.378Z,15.80
2019-03-24T18:03:08.968Z,15.80
2019-03-24T18:05:37.637Z,15.70
2019-03-24T18:08:06.265Z,15.70
2019-03-24T18:10:34.715Z,15.70
2019-03-24T18:13:03.315Z,15.70
2019-03-24T18:15:31.809Z,15.60
2019-03-24T18:18:00.320Z,15.60
2019-03-24T18:20:30.822Z,15.50
2019-03-24T18:22:59.329Z,15.50
2019-03-24T18:25:27.850Z,15.50
2019-03-24T18:27:56.551Z,15.50
2019-03-24T18:30:26.689Z,15.40
2019-03-24T18:32:55.305Z,15.40
2019-03-24T18:35:23.801Z,15.40
2019-03-24T18:37:52.249Z,15.40
2019-03-24T18:40:22.091Z,15.40
2019-03-24T18:42:50.525Z,15.40
2019-03-24T18:45:20.332Z,15.40
2019-03-24T18:47:48.912Z,15.30
2019-03-24T18:50:17.625Z,15.30
2019-03-24T18:52:46.237Z,15.30
2019-03-24T18:55:15.676Z,15.20
2019-03-24T18:57:44.281Z,15.20
2019-03-24T19:00:14.255Z,15.20
2019-03-24T19:02:42.829Z,15.20
2019-03-24T19:05:11.693Z,15.20
2019-03-24T19:07:40.288Z,15.20
2019-03-24T19:10:11.106Z,15.20
2019-03-24T19:12:39.604Z,15.20
2019-03-24T19:15:10.201Z,15.20
2019-03-24T19:17:38.749Z,15.20
2019-03-24T19:20:07.858Z,15.20
2019-03-24T19:22:36.451Z,15.20
2019-03-24T19:25:07.776Z,15.20
2019-03-24T19:27:36.312Z,15.20
2019-03-24T19:30:13.796Z,15.20
2019-03-24T19:32:42.419Z,15.20
2019-03-24T19:35:12.699Z,15.10
2019-03-24T19:37:42.237Z,15.10
2019-03-24T19:40:27.542Z,15.10
2019-03-24T19:42:56.204Z,15.10
2019-03-24T19:45:25.106Z,15.00
2019-03-24T19:47:55.156Z,15.00
2019-03-24T19:50:23.906Z,15.00
2019-03-24T19:52:52.550Z,15.00
2019-03-24T19:55:21.001Z,14.90
2019-03-24T19:57:49.590Z,14.90
2019-03-24T20:00:18.203Z,14.90
2019-03-24T20:02:46.697Z,14.90
2019-03-24T20:05:15.209Z,14.90
2019-03-24T20:07:47.865Z,14.80
2019-03-24T20:10:14.023Z,14.80
2019-03-24T20:12:42.581Z,14.80
2019-03-24T20:15:11.195Z,14.80
2019-03-24T20:17:39.754Z,14.80
2019-03-24T20:20:08.557Z,14.80
2019-03-24T20:22:37.103Z,14.80
2019-03-24T20:25:07.286Z,14.80
2019-03-24T20:27:35.807Z,14.80
2019-03-24T20:30:10.490Z,14.80
2019-03-24T20:32:39.147Z,14.80
2019-03-24T20:35:08.231Z,14.80
2019-03-24T20:37:36.698Z,14.70
2019-03-24T20:40:06.498Z,14.80
2019-03-24T20:42:35.018Z,14.70
2019-03-24T20:45:04.693Z,14.70
2019-03-24T20:47:33.130Z,14.60
2019-03-24T20:50:03.760Z,14.60
2019-03-24T20:52:31.849Z,14.60
2019-03-24T20:55:00.365Z,14.60
2019-03-24T20:57:28.934Z,14.60
2019-03-24T20:59:57.394Z,14.60
2019-03-24T21:02:25.899Z,14.60
2019-03-24T21:04:54.507Z,14.60
2019-03-24T21:07:22.976Z,14.60
2019-03-24T21:09:51.505Z,14.60
2019-03-24T21:12:20.059Z,14.60
2019-03-24T21:14:48.518Z,14.60
2019-03-24T21:17:16.974Z,14.60
2019-03-24T21:19:45.466Z,14.60
2019-03-24T21:22:13.975Z,14.50
2019-03-24T21:24:42.475Z,14.40
2019-03-24T21:27:10.913Z,14.30
2019-03-24T21:29:39.444Z,14.30
2019-03-24T21:32:07.977Z,14.20
2019-03-24T21:34:36.413Z,14.20
2019-03-24T21:37:04.931Z,14.20
2019-03-24T21:39:33.390Z,14.10
2019-03-24T21:42:01.892Z,14.00
2019-03-24T21:44:30.423Z,14.00
2019-03-24T21:46:58.880Z,13.90
2019-03-24T21:49:27.408Z,13.90
2019-03-24T21:51:55.864Z,14.00
2019-03-24T21:54:24.312Z,14.00
2019-03-24T21:56:52.766Z,13.90
2019-03-24T21:59:21.268Z,13.90
2019-03-24T22:01:49.719Z,13.90
2019-03-24T22:04:18.154Z,13.80
2019-03-24T22:06:46.641Z,13.80
2019-03-24T22:09:15.064Z,13.80
2019-03-24T22:11:43.597Z,13.80
2019-03-24T22:14:12.108Z,13.80
2019-03-24T22:16:40.578Z,13.80
2019-03-24T22:19:09.013Z,13.70
2019-03-24T22:21:37.520Z,13.70
2019-03-24T22:24:05.963Z,13.70
2019-03-24T22:26:34.390Z,13.70
2019-03-24T22:29:02.837Z,13.60
2019-03-24T22:31:31.322Z,13.60
2019-03-24T22:33:59.896Z,13.60
2019-03-24T22:36:28.338Z,13.50
2019-03-24T22:38:56.879Z,13.40
2019-03-24T22:41:25.337Z,13.40
2019-03-24T22:43:53.777Z,13.30
2019-03-24T22:46:22.222Z,13.30
2019-03-24T22:48:50.650Z,13.30
2019-03-24T22:51:19.146Z,13.20
2019-03-24T22:53:47.590Z,13.20
2019-03-24T22:56:16.008Z,13.20
2019-03-24T22:58:44.537Z,13.20
2019-03-24T23:01:13.735Z,13.20
2019-03-24T23:03:42.319Z,13.10
2019-03-24T23:06:10.733Z,13.20
2019-03-24T23:08:39.229Z,13.20
2019-03-24T23:11:07.735Z,13.20
2019-03-24T23:13:36.207Z,13.10
2019-03-24T23:16:04.708Z,13.20
2019-03-24T23:18:33.128Z,13.10
2019-03-24T23:21:01.585Z,13.10
2019-03-24T23:23:30.011Z,13.00
2019-03-24T23:25:58.486Z,13.00
2019-03-24T23:28:26.918Z,13.00
2019-03-24T23:30:55.372Z,12.90
2019-03-24T23:33:23.797Z,12.90
2019-03-24T23:35:52.345Z,12.90
2019-03-24T23:38:20.942Z,12.90
2019-03-24T23:40:49.501Z,12.90
2019-03-24T23:43:18.049Z,12.90
2019-03-24T23:45:46.493Z,12.90
2019-03-24T23:48:14.985Z,12.90
2019-03-24T23:50:43.442Z,12.80
2019-03-24T23:53:12.420Z,12.80
2019-03-24T23:55:40.933Z,12.80
2019-03-24T23:58:09.379Z,12.70
